createdAt,value
2023-01-19T00:01:56.444Z,6.95
2023-01-19T00:04:26.979Z,8.40
2023-01-19T00:06:57.483Z,6.78
2023-01-19T00:09:28.325Z,6.88
2023-01-19T00:11:58.848Z,6.55
2023-01-19T00:14:31.960Z,6.55
2023-01-19T00:17:03.471Z,7.55
2023-01-19T00:19:33.989Z,6.35
2023-01-19T00:22:06.326Z,6.63
2023-01-19T00:24:37.120Z,7.13
2023-01-19T00:27:07.773Z,8.35
2023-01-19T00:29:44.092Z,6.60
2023-01-19T00:32:14.682Z,8.00
2023-01-19T00:34:49.718Z,6.15
2023-01-19T00:37:20.983Z,7.15
2023-01-19T00:39:51.614Z,7.65
2023-01-19T00:42:34.352Z,7.50
2023-01-19T00:45:08.265Z,9.05
2023-01-19T00:47:39.502Z,7.75
2023-01-19T00:50:12.016Z,8.30
2023-01-19T00:52:42.697Z,8.18
2023-01-19T00:55:14.734Z,8.10
2023-01-19T00:57:46.148Z,7.50
2023-01-19T01:00:21.841Z,8.85
2023-01-19T01:02:54.336Z,7.78
2023-01-19T01:05:24.899Z,8.15
2023-01-19T01:07:55.396Z,7.43
2023-01-19T01:10:28.477Z,7.95
2023-01-19T01:12:59.214Z,6.70
2023-01-19T01:15:32.596Z,7.75
2023-01-19T01:18:03.457Z,8.13
2023-01-19T01:20:35.058Z,6.55
2023-01-19T01:23:05.704Z,7.15
2023-01-19T01:25:38.177Z,6.85
2023-01-19T01:28:09.985Z,6.65
2023-01-19T01:30:44.345Z,6.25
2023-01-19T01:33:14.860Z,6.10
2023-01-19T01:35:45.446Z,6.07
2023-01-19T01:38:16.103Z,6.45
2023-01-19T01:40:47.305Z,6.53
2023-01-19T01:43:20.706Z,6.80
2023-01-19T01:45:55.189Z,6.53
2023-01-19T01:48:33.674Z,5.80
2023-01-19T01:51:21.709Z,5.90
2023-01-19T01:53:58.611Z,5.72
2023-01-19T01:56:34.318Z,6.03
2023-01-19T01:59:08.496Z,5.47
2023-01-19T02:01:54.673Z,6.82
2023-01-19T02:04:26.947Z,6.35
2023-01-19T02:07:09.799Z,6.95
2023-01-19T02:09:52.970Z,6.55
2023-01-19T02:12:36.312Z,5.95
2023-01-19T02:15:07.711Z,5.78
2023-01-19T02:17:41.050Z,7.22
2023-01-19T02:20:13.456Z,5.80
2023-01-19T02:22:50.200Z,6.70
2023-01-19T02:25:23.683Z,6.60
2023-01-19T02:27:56.613Z,5.95
2023-01-19T02:30:28.077Z,5.20
2023-01-19T02:32:59.132Z,5.70
2023-01-19T02:35:30.478Z,5.25
2023-01-19T02:38:01.873Z,6.13
2023-01-19T02:40:35.308Z,5.88
2023-01-19T02:43:09.005Z,4.90
2023-01-19T02:45:41.755Z,5.75
2023-01-19T02:48:12.435Z,6.30
2023-01-19T02:50:49.655Z,5.90
2023-01-19T02:53:37.131Z,5.95
2023-01-19T02:56:27.772Z,5.60
2023-01-19T02:59:07.307Z,6.40
2023-01-19T03:01:49.808Z,6.25
2023-01-19T03:04:31.783Z,6.22
2023-01-19T03:07:11.383Z,5.60
2023-01-19T03:09:49.633Z,5.53
2023-01-19T03:12:31.357Z,5.63
2023-01-19T03:15:06.675Z,5.35
2023-01-19T03:17:38.934Z,5.53
2023-01-19T03:20:13.497Z,6.10
2023-01-19T03:22:45.517Z,4.72
2023-01-19T03:25:16.643Z,5.75
2023-01-19T03:27:51.767Z,5.15
2023-01-19T03:30:28.541Z,6.68
2023-01-19T03:33:05.167Z,6.07
2023-01-19T03:35:39.034Z,5.70
2023-01-19T03:38:15.143Z,5.13
2023-01-19T03:40:47.718Z,5.40
2023-01-19T03:43:22.668Z,5.13
2023-01-19T03:45:54.647Z,5.13
2023-01-19T03:48:25.649Z,5.72
2023-01-19T03:50:56.536Z,4.85
2023-01-19T03:53:27.019Z,6.18
2023-01-19T03:55:57.676Z,5.53
2023-01-19T03:58:31.095Z,5.40
2023-01-19T04:01:01.809Z,4.63
2023-01-19T04:03:32.411Z,5.20
2023-01-19T04:06:03.184Z,5.05
2023-01-19T04:08:33.702Z,6.88
2023-01-19T04:11:04.638Z,5.18
2023-01-19T04:13:38.712Z,5.80
2023-01-19T04:16:10.301Z,6.22
2023-01-19T04:18:41.209Z,5.53
2023-01-19T04:21:12.042Z,5.20
2023-01-19T04:23:44.622Z,5.93
2023-01-19T04:26:15.332Z,5.38
2023-01-19T04:28:48.464Z,5.68
2023-01-19T04:31:19.612Z,5.28
2023-01-19T04:33:50.542Z,5.88
2023-01-19T04:36:21.199Z,6.65
2023-01-19T04:38:51.917Z,5.90
2023-01-19T04:41:22.609Z,5.38
2023-01-19T04:43:55.839Z,6.57
2023-01-19T04:46:26.523Z,6.07
2023-01-19T04:48:57.580Z,5.88
2023-01-19T04:51:28.990Z,6.57
2023-01-19T04:54:00.216Z,5.63
2023-01-19T04:56:31.205Z,6.38
2023-01-19T04:59:04.600Z,5.75
2023-01-19T05:01:35.769Z,6.13
2023-01-19T05:04:08.042Z,5.75
2023-01-19T05:06:38.861Z,6.50
2023-01-19T05:09:09.454Z,5.90
2023-01-19T05:11:40.136Z,5.32
2023-01-19T05:14:13.431Z,5.90
2023-01-19T05:16:44.057Z,7.85
2023-01-19T05:19:14.518Z,5.85
2023-01-19T05:21:45.186Z,6.18
2023-01-19T05:24:16.088Z,6.53
2023-01-19T05:26:46.768Z,6.10
2023-01-19T05:29:20.043Z,7.70
2023-01-19T05:31:51.028Z,6.50
2023-01-19T05:34:21.940Z,6.70
2023-01-19T05:36:55.528Z,6.50
2023-01-19T05:39:27.026Z,5.93
2023-01-19T05:41:57.569Z,6.45
2023-01-19T05:44:30.780Z,6.30
2023-01-19T05:47:01.366Z,5.93
2023-01-19T05:49:31.911Z,5.65
2023-01-19T05:52:02.467Z,6.38
2023-01-19T05:54:33.051Z,8.70
2023-01-19T05:57:04.797Z,6.05
2023-01-19T05:59:38.016Z,7.07
2023-01-19T06:02:09.034Z,8.15
2023-01-19T06:04:39.574Z,7.60
2023-01-19T06:07:10.177Z,8.70
2023-01-19T06:09:40.771Z,6.13
2023-01-19T06:12:11.816Z,6.80
2023-01-19T06:14:45.091Z,7.38
2023-01-19T06:17:15.728Z,7.32
2023-01-19T06:19:46.210Z,7.15
2023-01-19T06:22:17.012Z,8.02
2023-01-19T06:24:47.754Z,5.70
2023-01-19T06:27:18.572Z,7.43
2023-01-19T06:29:51.708Z,7.07
2023-01-19T06:32:22.337Z,6.82
2023-01-19T06:34:54.082Z,7.72
2023-01-19T06:37:27.064Z,7.30
2023-01-19T06:39:57.632Z,6.88
2023-01-19T06:42:28.875Z,6.43
2023-01-19T06:45:02.046Z,6.72
2023-01-19T06:47:34.956Z,8.60
2023-01-19T06:50:05.502Z,8.10
2023-01-19T06:52:42.533Z,8.35
2023-01-19T06:55:14.778Z,7.82
2023-01-19T06:57:46.328Z,6.70
2023-01-19T07:00:21.705Z,6.95
2023-01-19T07:05:22.403Z,6.93
2023-01-19T07:07:56.945Z,6.95
2023-01-19T07:11:25.921Z,7.17
2023-01-19T07:13:18.691Z,6.93
2023-01-19T07:15:51.895Z,8.68
2023-01-19T07:18:22.548Z,7.05
2023-01-19T07:20:53.076Z,8.70
2023-01-19T07:23:23.603Z,6.63
2023-01-19T07:25:54.163Z,7.80
2023-01-19T07:28:24.838Z,9.18
2023-01-19T07:30:58.855Z,6.53
2023-01-19T07:33:30.126Z,5.90
2023-01-19T07:36:00.614Z,6.90
2023-01-19T07:38:31.144Z,6.20
2023-01-19T07:41:04.995Z,7.05
2023-01-19T07:43:35.820Z,7.22
2023-01-19T07:46:10.192Z,7.70
2023-01-19T07:48:40.896Z,7.45
2023-01-19T07:51:18.070Z,11.38
2023-01-19T07:53:48.988Z,7.32
2023-01-19T07:56:19.891Z,15.13
2023-01-19T07:58:52.756Z,8.23
2023-01-19T08:01:26.207Z,13.55
2023-01-19T08:03:57.126Z,11.85
2023-01-19T08:06:33.507Z,6.95
2023-01-19T08:09:05.787Z,13.70
2023-01-19T08:11:37.047Z,8.35
2023-01-19T08:14:08.242Z,8.25
2023-01-19T08:16:41.374Z,6.50
2023-01-19T08:19:12.089Z,8.00
2023-01-19T08:21:42.686Z,8.25
2023-01-19T08:24:21.685Z,8.07
2023-01-19T08:26:53.029Z,6.40
2023-01-19T08:29:23.862Z,10.27
2023-01-19T08:31:59.163Z,10.43
2023-01-19T08:37:01.988Z,8.60
2023-01-19T08:39:32.523Z,7.05
2023-01-19T08:42:03.092Z,7.30
2023-01-19T08:44:33.657Z,6.82
2023-01-19T08:47:07.836Z,7.65
2023-01-19T08:49:38.561Z,8.15
2023-01-19T08:52:09.145Z,7.70
2023-01-19T08:54:39.731Z,7.60
2023-01-19T08:57:10.222Z,7.82
2023-01-19T08:59:40.966Z,7.55
2023-01-19T09:02:14.997Z,6.68
2023-01-19T09:04:45.652Z,7.43
2023-01-19T09:07:16.152Z,7.40
2023-01-19T09:09:46.713Z,5.68
2023-01-19T09:12:17.189Z,8.05
2023-01-19T09:14:47.771Z,6.40
2023-01-19T09:17:21.017Z,6.70
2023-01-19T09:19:51.581Z,8.70
2023-01-19T09:22:22.170Z,7.38
2023-01-19T09:24:52.797Z,8.10
2023-01-19T09:27:23.517Z,8.63
2023-01-19T09:29:55.268Z,7.68
2023-01-19T09:32:28.456Z,7.68
2023-01-19T09:34:59.109Z,7.07
2023-01-19T09:37:29.511Z,7.50
2023-01-19T09:40:00.266Z,8.30
2023-01-19T09:42:36.688Z,9.02
2023-01-19T09:45:13.965Z,7.53
2023-01-19T09:47:48.790Z,7.47
2023-01-19T09:50:27.173Z,8.23
2023-01-19T09:53:07.585Z,8.00
2023-01-19T09:55:41.381Z,7.18
2023-01-19T09:58:18.524Z,6.18
2023-01-19T10:00:55.936Z,6.18
2023-01-19T10:03:29.150Z,7.13
2023-01-19T10:06:04.368Z,8.02
2023-01-19T10:11:31.836Z,6.18
2023-01-19T10:14:14.559Z,7.28
2023-01-19T10:16:56.334Z,6.38
2023-01-19T10:19:33.050Z,6.35
2023-01-19T10:22:13.432Z,6.95
2023-01-19T10:24:47.305Z,5.45
2023-01-19T10:27:24.185Z,5.38
2023-01-19T10:29:55.278Z,5.47
2023-01-19T10:32:27.283Z,7.10
2023-01-19T10:35:02.388Z,6.55
2023-01-19T10:37:37.178Z,5.65
2023-01-19T10:40:23.729Z,7.13
2023-01-19T10:42:54.321Z,7.03
2023-01-19T10:45:29.566Z,6.47
2023-01-19T10:50:37.372Z,5.45
2023-01-19T10:53:10.271Z,5.97
2023-01-19T10:55:43.324Z,5.30
2023-01-19T10:58:31.461Z,6.25
2023-01-19T11:01:17.134Z,5.25
2023-01-19T11:03:47.780Z,5.25
2023-01-19T11:06:30.256Z,5.80
2023-01-19T11:09:24.283Z,6.25
2023-01-19T11:11:57.063Z,5.55
2023-01-19T11:14:29.509Z,5.78
2023-01-19T11:17:01.750Z,4.85
2023-01-19T11:19:34.832Z,5.82
2023-01-19T11:22:22.534Z,6.45
2023-01-19T11:24:53.501Z,5.55
2023-01-19T11:27:25.166Z,4.85
2023-01-19T11:30:10.915Z,6.00
2023-01-19T11:32:43.220Z,4.90
2023-01-19T11:35:36.084Z,5.68
2023-01-19T11:38:23.380Z,4.95
2023-01-19T11:40:59.659Z,5.75
2023-01-19T11:43:48.237Z,5.53
2023-01-19T11:46:21.609Z,4.53
2023-01-19T11:49:02.249Z,4.65
2023-01-19T11:51:37.332Z,5.00
2023-01-19T11:56:52.278Z,6.22
2023-01-19T11:59:24.314Z,4.13
2023-01-19T12:01:58.754Z,4.63
2023-01-19T12:04:34.272Z,4.60
2023-01-19T12:07:10.771Z,4.70
2023-01-19T12:09:49.971Z,4.38
2023-01-19T12:12:30.182Z,4.55
2023-01-19T12:15:05.498Z,5.53
2023-01-19T12:17:39.580Z,5.90
2023-01-19T12:20:22.057Z,4.50
2023-01-19T12:23:04.356Z,4.65
2023-01-19T12:25:53.319Z,4.50
2023-01-19T12:28:31.870Z,4.75
2023-01-19T12:31:04.678Z,4.93
2023-01-19T12:33:37.915Z,4.90
2023-01-19T12:36:14.394Z,5.25
2023-01-19T12:38:57.154Z,5.63
2023-01-19T12:41:36.497Z,4.80
2023-01-19T12:44:38.642Z,4.07
2023-01-19T12:47:24.728Z,3.90
2023-01-19T12:49:59.715Z,4.90
2023-01-19T12:52:34.761Z,4.40
2023-01-19T12:57:43.816Z,5.22
2023-01-19T13:00:38.953Z,4.03
2023-01-19T13:03:39.878Z,3.73
2023-01-19T13:06:10.588Z,4.25
2023-01-19T13:08:59.366Z,4.15
2023-01-19T13:11:34.347Z,4.13
2023-01-19T13:14:37.815Z,4.95
2023-01-19T13:17:25.401Z,4.65
2023-01-19T13:20:21.380Z,4.30
2023-01-19T13:25:33.903Z,4.25
2023-01-19T13:28:05.098Z,4.38
2023-01-19T13:30:38.360Z,4.07
2023-01-19T13:33:19.939Z,4.43
2023-01-19T13:35:57.360Z,5.15
2023-01-19T13:38:29.902Z,4.03
2023-01-19T13:41:05.052Z,4.15
2023-01-19T13:43:40.588Z,4.70
2023-01-19T13:46:14.757Z,4.03
2023-01-19T13:48:57.459Z,3.83
2023-01-19T13:51:28.132Z,3.88
2023-01-19T13:53:59.665Z,4.15
2023-01-19T13:56:31.053Z,3.28
2023-01-19T13:59:15.693Z,4.10
2023-01-19T14:01:51.244Z,3.97
2023-01-19T14:04:33.497Z,3.40
2023-01-19T14:07:06.129Z,3.97
2023-01-19T14:09:36.622Z,3.97
2023-01-19T14:12:15.007Z,4.97
2023-01-19T14:14:46.974Z,3.42
2023-01-19T14:17:30.048Z,2.85
2023-01-19T14:20:05.619Z,3.33
2023-01-19T14:22:44.125Z,3.97
2023-01-19T14:25:36.653Z,2.85
2023-01-19T14:28:32.088Z,3.80
2023-01-19T14:31:04.810Z,3.17
2023-01-19T14:33:47.177Z,3.22
2023-01-19T14:36:39.292Z,4.07
2023-01-19T14:39:23.529Z,4.82
2023-01-19T14:41:55.976Z,4.18
2023-01-19T14:44:31.892Z,3.20
2023-01-19T14:47:03.262Z,3.60
2023-01-19T14:49:37.180Z,3.53
2023-01-19T14:52:23.342Z,3.67
2023-01-19T14:54:54.773Z,2.80
2023-01-19T14:57:25.315Z,3.40
2023-01-19T14:59:56.068Z,4.45
2023-01-19T15:02:26.527Z,3.25
2023-01-19T15:04:58.093Z,2.85
2023-01-19T15:07:32.041Z,4.50
2023-01-19T15:10:02.928Z,3.33
2023-01-19T15:12:33.758Z,2.55
2023-01-19T15:15:04.799Z,3.15
2023-01-19T15:17:35.775Z,2.80
2023-01-19T15:20:06.622Z,2.75
2023-01-19T15:22:39.877Z,2.53
2023-01-19T15:25:11.041Z,4.30
2023-01-19T15:27:41.810Z,3.78
2023-01-19T15:30:24.527Z,3.33
2023-01-19T15:32:54.999Z,4.20
2023-01-19T15:35:27.072Z,3.58
2023-01-19T15:38:00.391Z,6.82
2023-01-19T15:40:31.036Z,5.93
2023-01-19T15:43:01.528Z,3.05
2023-01-19T15:45:38.747Z,3.05
2023-01-19T15:48:11.102Z,4.68
2023-01-19T15:50:45.177Z,3.63
2023-01-19T15:53:20.734Z,4.70
2023-01-19T15:55:55.646Z,4.60
2023-01-19T15:58:26.918Z,3.22
2023-01-19T16:00:58.490Z,3.28
2023-01-19T16:03:29.724Z,3.17
2023-01-19T16:06:03.671Z,3.75
2023-01-19T16:08:36.898Z,3.67
2023-01-19T16:11:09.094Z,3.33
2023-01-19T16:13:39.943Z,5.50
2023-01-19T16:16:16.797Z,3.42
2023-01-19T16:18:47.407Z,3.90
2023-01-19T16:21:18.379Z,4.10
2023-01-19T16:23:51.609Z,3.40
2023-01-19T16:26:34.768Z,3.58
2023-01-19T16:29:09.956Z,3.55
2023-01-19T16:31:41.162Z,3.13
2023-01-19T16:34:12.138Z,3.00
2023-01-19T16:36:44.590Z,4.22
2023-01-19T16:39:18.636Z,3.42
2023-01-19T16:41:49.355Z,4.28
2023-01-19T16:44:20.651Z,4.18
2023-01-19T16:46:52.622Z,3.75
2023-01-19T16:49:28.292Z,3.58
2023-01-19T16:51:59.997Z,2.53
2023-01-19T16:54:33.917Z,3.30
2023-01-19T16:57:05.050Z,3.60
2023-01-19T16:59:36.739Z,3.70
2023-01-19T17:02:08.015Z,3.55
2023-01-19T17:04:39.072Z,5.10
2023-01-19T17:07:09.938Z,4.75
2023-01-19T17:09:43.395Z,3.45
2023-01-19T17:12:14.033Z,4.00
2023-01-19T17:14:47.538Z,3.92
2023-01-19T17:17:18.506Z,4.13
2023-01-19T17:19:48.964Z,4.70
2023-01-19T17:22:19.743Z,5.00
2023-01-19T17:24:53.356Z,4.55
2023-01-19T17:27:24.221Z,3.45
2023-01-19T17:29:55.537Z,3.30
2023-01-19T17:32:26.312Z,6.43
2023-01-19T17:34:56.919Z,4.78
2023-01-19T17:37:28.058Z,3.20
2023-01-19T17:40:01.766Z,3.17
2023-01-19T17:42:34.591Z,3.58
2023-01-19T17:45:05.308Z,4.57
2023-01-19T17:47:36.160Z,3.20
2023-01-19T17:50:07.554Z,3.90
2023-01-19T17:52:38.510Z,3.95
2023-01-19T17:55:13.387Z,3.95
2023-01-19T17:57:44.832Z,3.95
2023-01-19T18:00:16.830Z,3.13
2023-01-19T18:02:47.915Z,3.33
2023-01-19T18:05:19.640Z,3.13
2023-01-19T18:07:50.957Z,3.80
2023-01-19T18:10:24.808Z,3.20
2023-01-19T18:12:55.359Z,3.78
2023-01-19T18:15:26.052Z,3.33
2023-01-19T18:17:56.773Z,3.92
2023-01-19T18:20:27.521Z,4.32
2023-01-19T18:22:58.345Z,4.78
2023-01-19T18:25:31.896Z,4.63
2023-01-19T18:28:02.603Z,3.55
2023-01-19T18:30:33.214Z,3.70
2023-01-19T18:33:04.560Z,3.53
2023-01-19T18:35:36.377Z,5.07
2023-01-19T18:38:07.483Z,9.25
2023-01-19T18:40:41.145Z,5.60
2023-01-19T18:43:12.048Z,4.20
2023-01-19T18:45:42.910Z,3.97
2023-01-19T18:48:13.764Z,2.97
2023-01-19T18:50:45.752Z,3.38
2023-01-19T18:53:17.936Z,3.58
2023-01-19T18:55:59.595Z,3.72
2023-01-19T18:58:32.909Z,3.47
2023-01-19T19:01:05.592Z,3.33
2023-01-19T19:03:38.552Z,3.53
2023-01-19T19:06:09.902Z,3.88
2023-01-19T19:08:43.114Z,3.53
2023-01-19T19:11:21.065Z,2.90
2023-01-19T19:13:58.016Z,4.10
2023-01-19T19:16:32.776Z,3.20
2023-01-19T19:19:07.361Z,3.65
2023-01-19T19:21:38.825Z,5.18
2023-01-19T19:24:11.628Z,3.45
2023-01-19T19:26:45.134Z,3.53
2023-01-19T19:29:16.886Z,3.88
2023-01-19T19:31:47.837Z,4.00
2023-01-19T19:34:18.801Z,2.70
2023-01-19T19:36:51.282Z,3.15
2023-01-19T19:39:23.317Z,3.55
2023-01-19T19:41:58.073Z,3.33
2023-01-19T19:44:29.261Z,2.60
2023-01-19T19:47:00.507Z,2.85
2023-01-19T19:49:32.883Z,2.70
2023-01-19T19:52:04.041Z,3.50
2023-01-19T19:54:37.471Z,3.20
2023-01-19T19:57:14.172Z,2.53
2023-01-19T19:59:45.371Z,3.30
2023-01-19T20:02:16.327Z,3.33
2023-01-19T20:04:47.251Z,2.95
2023-01-19T20:07:22.964Z,3.35
2023-01-19T20:09:56.743Z,3.55
2023-01-19T20:12:31.846Z,3.60
2023-01-19T20:15:02.978Z,6.07
2023-01-19T20:17:38.323Z,4.22
2023-01-19T20:20:13.021Z,3.53
2023-01-19T20:22:44.419Z,3.60
2023-01-19T20:25:15.097Z,3.50
2023-01-19T20:27:48.377Z,3.53
2023-01-19T20:30:19.616Z,3.05
2023-01-19T20:32:52.081Z,3.67
2023-01-19T20:35:22.904Z,3.72
2023-01-19T20:37:53.479Z,3.97
2023-01-19T20:40:24.365Z,3.50
2023-01-19T20:42:58.016Z,3.67
2023-01-19T20:45:28.747Z,3.17
2023-01-19T20:47:59.636Z,2.90
2023-01-19T20:50:31.054Z,3.22
2023-01-19T20:53:01.801Z,2.95
2023-01-19T20:55:33.365Z,4.20
2023-01-19T20:58:07.482Z,3.13
2023-01-19T21:00:38.734Z,2.75
2023-01-19T21:03:09.470Z,3.33
2023-01-19T21:05:40.460Z,2.60
2023-01-19T21:08:13.588Z,2.85
2023-01-19T21:10:45.083Z,3.40
2023-01-19T21:13:18.264Z,3.17
2023-01-19T21:15:49.011Z,3.00
2023-01-19T21:18:19.781Z,2.67
2023-01-19T21:20:51.487Z,3.42
2023-01-19T21:23:22.080Z,2.90
2023-01-19T21:25:53.692Z,3.78
2023-01-19T21:28:29.409Z,3.58
2023-01-19T21:31:00.453Z,3.55
2023-01-19T21:33:31.109Z,2.83
2023-01-19T21:36:04.139Z,3.05
2023-01-19T21:38:34.919Z,2.35
2023-01-19T21:41:10.044Z,2.72
2023-01-19T21:43:43.837Z,3.00
2023-01-19T21:46:17.332Z,3.42
2023-01-19T21:48:48.891Z,3.72
2023-01-19T21:51:19.615Z,3.25
2023-01-19T21:53:52.906Z,3.13
2023-01-19T21:56:23.912Z,3.67
2023-01-19T21:58:57.058Z,3.03
2023-01-19T22:01:28.104Z,2.47
2023-01-19T22:04:00.034Z,3.80
2023-01-19T22:06:31.261Z,3.03
2023-01-19T22:09:02.040Z,4.85
2023-01-19T22:11:33.287Z,4.82
2023-01-19T22:14:06.572Z,4.78
2023-01-19T22:16:37.387Z,4.72
2023-01-19T22:19:08.493Z,4.15
2023-01-19T22:21:39.602Z,6.13
2023-01-19T22:24:10.937Z,5.93
2023-01-19T22:26:41.929Z,5.28
2023-01-19T22:29:15.440Z,6.18
2023-01-19T22:31:47.187Z,6.18
2023-01-19T22:34:18.020Z,6.43
2023-01-19T22:36:48.599Z,3.88
2023-01-19T22:39:19.246Z,3.60
2023-01-19T22:41:50.245Z,4.65
2023-01-19T22:44:24.885Z,4.72
2023-01-19T22:46:58.449Z,3.45
2023-01-19T22:49:29.111Z,2.47
2023-01-19T22:51:59.760Z,4.32
2023-01-19T22:54:30.494Z,3.33
2023-01-19T22:57:01.977Z,2.17
2023-01-19T22:59:35.110Z,2.15
2023-01-19T23:02:05.839Z,2.55
2023-01-19T23:04:36.367Z,2.25
2023-01-19T23:07:09.469Z,2.05
2023-01-19T23:09:40.958Z,2.38
2023-01-19T23:12:11.565Z,2.58
2023-01-19T23:14:44.814Z,2.15
2023-01-19T23:17:15.395Z,2.13
2023-01-19T23:19:45.890Z,1.88
2023-01-19T23:22:16.570Z,2.13
2023-01-19T23:24:47.147Z,2.00
2023-01-19T23:27:17.884Z,1.90
2023-01-19T23:29:51.127Z,2.17
2023-01-19T23:32:21.739Z,2.20
2023-01-19T23:34:52.300Z,2.17
2023-01-19T23:37:22.834Z,1.70
2023-01-19T23:39:53.406Z,2.08
2023-01-19T23:42:24.075Z,2.75
2023-01-19T23:44:57.252Z,2.88
2023-01-19T23:47:28.175Z,2.05
2023-01-19T23:49:58.748Z,2.05
2023-01-19T23:52:29.460Z,2.30
2023-01-19T23:55:00.415Z,2.15
2023-01-19T23:57:31.019Z,2.03
